Andira, Brazil
Current Conditions -  °F | °C
As of 6:00 PM on Monday 26 Jan 2015 (Local Time) from SBLO Reporting Station
Light Rain Light Rain  
Wind Chill: 72°   Ceiling: 10000
Heat Index: 72°   Visibility: 6mi
Dew Point: 68°   Wind: 3mph
Humidity: 88%   Direction: 240°WSW
Pressure: NA   Gusts: NA
Location:  23.04°S, 50.23°W
Report Text: SBLO 262000Z 24003KT 9000 -RA SCT030 FEW040TCU BKN100 22/20 Q1013 RETSRA
Loading
Personal Weather Stations






























Interactive Weather Map New forecast layout! Learn more

10-Day Weather Forecast

Advertisements
Track Severe Weather on mobile